KLWV/LWV METAR and TAF weather

Enter ICAO airport designator
Station Type Date Time Source
KLWV METAR 2022/12/02 21:53 UTC NOAA

KLWV 022153Z AUTO 19025G41KT 10SM -RA BKN034 OVC042 10/05 A3000 RMK AO2 PK WND 20041/2144 RAB14 SLP162 P0000 T01000050


Station Type Date Time Source
KLWV Decoded METAR 2022/12/02 21:53 UTC NOAA

LAWRENCEVILLE-VINCENNES INTERNATIONAL , IL, United States (KLWV) 38-46N 87-36W 131M
Dec 02, 2022 - 04:53 PM EST / 2022.12.02 2153 UTC
Wind: from the S (190 degrees) at 29 MPH (25 KT) gusting to 47 MPH (41 KT):0
Visibility: 10 mile(s):0
Sky conditions: overcast
Weather: light rain
Precipitation last hour: A trace
Temperature: 50.0 F (10.0 C)
Dew Point: 41.0 F (5.0 C)
Relative Humidity: 71%
Pressure (altimeter): 30 in. Hg (1015 hPa)
ob: KLWV 022153Z AUTO 19025G41KT 10SM -RA BKN034 OVC042 10/05 A3000 RMK AO2 PK WND 20041/2144 RAB14 SLP162 P0000 T01000050
cycle: 22

Station Type Date Time Source
KLWV TAF UTC NOAA

Error!

Example: see airport list